createdAt,value
2017-05-06T00:00:19.199Z,10.1
2017-05-06T00:01:21.568Z,10.1
2017-05-06T00:02:24.181Z,10.2
2017-05-06T00:03:27.062Z,10.2
2017-05-06T00:04:30.191Z,10.2
2017-05-06T00:05:32.554Z,10.1
2017-05-06T00:06:34.921Z,10.2
2017-05-06T00:07:37.659Z,10.2
2017-05-06T00:08:40.535Z,10.2
2017-05-06T00:09:43.154Z,10.2
2017-05-06T00:10:45.524Z,10.2
2017-05-06T00:11:48.393Z,10.2
2017-05-06T00:12:50.993Z,10.1
2017-05-06T00:13:53.860Z,10.1
2017-05-06T00:14:56.519Z,10.1
2017-05-06T00:15:58.884Z,10.1
2017-05-06T00:17:01.754Z,10.1
2017-05-06T00:18:04.627Z,10.1
2017-05-06T00:19:06.997Z,10.1
2017-05-06T00:20:09.982Z,10.1
2017-05-06T00:21:12.214Z,10.1
2017-05-06T00:22:15.082Z,10.1
2017-05-06T00:23:17.951Z,10.1
2017-05-06T00:24:20.312Z,10.1
2017-05-06T00:25:23.300Z,10.1
2017-05-06T00:26:25.665Z,10.1
2017-05-06T00:27:28.556Z,10.1
2017-05-06T00:28:30.924Z,10.2
2017-05-06T00:29:33.787Z,10.1
2017-05-06T00:30:36.413Z,10.2
2017-05-06T00:31:39.283Z,10.1
2017-05-06T00:32:41.655Z,10.1
2017-05-06T00:33:44.529Z,10.1
2017-05-06T00:34:46.894Z,10.1
2017-05-06T00:35:50.016Z,10.1
2017-05-06T00:36:52.398Z,10.1
2017-05-06T00:37:55.305Z,10.1
2017-05-06T00:38:57.679Z,10.1
2017-05-06T00:40:00.544Z,10.1
2017-05-06T00:41:03.169Z,10.1
2017-05-06T00:42:05.399Z,10.1
2017-05-06T00:43:08.136Z,10.1
2017-05-06T00:44:11.001Z,10.1
2017-05-06T00:45:14.437Z,10.1
2017-05-06T00:46:16.570Z,10.1
2017-05-06T00:47:18.935Z,10.1
2017-05-06T00:48:21.804Z,10.1
2017-05-06T00:49:24.173Z,10.1
2017-05-06T00:50:26.909Z,10.1
2017-05-06T00:52:32.436Z,10.1
2017-05-06T00:53:34.794Z,10.1
2017-05-06T00:54:37.662Z,10.1
2017-05-06T00:55:40.529Z,10.1
2017-05-06T00:56:42.762Z,10.1
2017-05-06T00:57:45.880Z,10.1
2017-05-06T00:58:48.245Z,10.1
2017-05-06T00:59:51.111Z,10.1
2017-05-06T01:00:53.844Z,10.1
2017-05-06T01:01:56.209Z,10.1
2017-05-06T01:02:59.376Z,10.1
2017-05-06T01:04:01.744Z,10.1
2017-05-06T01:05:04.138Z,10.1
2017-05-06T01:06:07.009Z,10.1
2017-05-06T01:07:09.880Z,10.1
2017-05-06T01:08:12.408Z,10.1
2017-05-06T01:09:15.142Z,10.1
2017-05-06T01:10:17.503Z,10.1
2017-05-06T01:11:20.371Z,10.1
2017-05-06T01:12:23.103Z,10.1
2017-05-06T01:13:25.723Z,10.1
2017-05-06T01:14:28.091Z,10.1
2017-05-06T01:15:30.827Z,10.1
2017-05-06T01:16:33.693Z,10.1
2017-05-06T01:17:36.563Z,10.1
2017-05-06T01:20:44.502Z,10.1
2017-05-06T01:21:46.866Z,10
2017-05-06T01:22:49.737Z,10
2017-05-06T01:23:51.974Z,10
2017-05-06T01:24:54.850Z,10
2017-05-06T01:25:58.019Z,10
2017-05-06T01:27:00.381Z,10
2017-05-06T01:28:02.749Z,10
2017-05-06T01:29:05.478Z,10
2017-05-06T01:30:08.344Z,10
2017-05-06T01:31:11.383Z,10
2017-05-06T01:32:13.613Z,10
2017-05-06T01:33:16.488Z,10
2017-05-06T01:34:18.855Z,10
2017-05-06T01:35:21.721Z,10
2017-05-06T01:36:24.347Z,10
2017-05-06T01:37:26.720Z,10.1
2017-05-06T01:38:29.592Z,10.1
2017-05-06T01:40:34.859Z,10.1
2017-05-06T01:41:37.850Z,10
2017-05-06T01:42:40.219Z,10
2017-05-06T01:43:43.143Z,10
2017-05-06T01:44:45.509Z,10
2017-05-06T01:45:48.382Z,10
2017-05-06T01:46:51.000Z,10
2017-05-06T01:47:53.422Z,10
2017-05-06T01:48:56.293Z,10
2017-05-06T01:49:58.657Z,10
2017-05-06T01:51:01.525Z,10
2017-05-06T01:52:04.697Z,10
2017-05-06T01:53:07.069Z,10
2017-05-06T01:54:09.302Z,10
2017-05-06T01:55:12.167Z,10
2017-05-06T01:56:14.902Z,10
2017-05-06T01:57:18.021Z,10
2017-05-06T01:58:20.383Z,10
2017-05-06T01:59:22.747Z,10
2017-05-06T02:00:25.341Z,10
2017-05-06T02:01:28.210Z,10
2017-05-06T02:02:31.337Z,10
2017-05-06T02:03:33.715Z,10
2017-05-06T02:05:38.991Z,10
2017-05-06T02:06:41.361Z,10
2017-05-06T02:07:44.488Z,10
2017-05-06T02:08:46.853Z,10
2017-05-06T02:09:49.225Z,10
2017-05-06T02:10:52.538Z,10
2017-05-06T02:11:54.909Z,10
2017-05-06T02:12:57.534Z,10
2017-05-06T02:13:59.900Z,10
2017-05-06T02:15:02.769Z,10
2017-05-06T02:16:05.641Z,10
2017-05-06T02:17:08.002Z,10
2017-05-06T02:18:10.996Z,10
2017-05-06T02:19:13.367Z,10
2017-05-06T02:20:16.231Z,10
2017-05-06T02:21:18.598Z,10
2017-05-06T02:22:21.333Z,10.1
2017-05-06T02:23:24.453Z,10
2017-05-06T02:24:26.820Z,10
2017-05-06T02:25:29.193Z,10.1
2017-05-06T02:26:32.121Z,10
2017-05-06T02:27:35.474Z,10
2017-05-06T02:28:37.586Z,10
2017-05-06T02:29:39.954Z,10
2017-05-06T02:30:42.818Z,10
2017-05-06T02:31:45.551Z,10
2017-05-06T02:32:47.916Z,10
2017-05-06T02:33:51.037Z,10
2017-05-06T02:34:53.405Z,10
2017-05-06T02:35:56.281Z,10
2017-05-06T02:36:58.509Z,10
2017-05-06T02:38:01.241Z,10
2017-05-06T02:39:04.415Z,10.1
2017-05-06T02:40:06.511Z,10.1
2017-05-06T02:41:09.381Z,10.1
2017-05-06T02:43:14.656Z,10
2017-05-06T02:44:17.650Z,10
2017-05-06T02:45:20.015Z,10
2017-05-06T02:46:22.888Z,10
2017-05-06T02:47:25.122Z,10
2017-05-06T02:48:27.994Z,10
2017-05-06T02:49:31.115Z,10
2017-05-06T02:50:33.482Z,10
2017-05-06T02:51:35.716Z,10
2017-05-06T02:52:38.591Z,10
2017-05-06T02:53:41.468Z,10
2017-05-06T02:54:44.134Z,10
2017-05-06T02:55:46.506Z,10
2017-05-06T02:56:49.384Z,10
2017-05-06T02:57:51.755Z,10
2017-05-06T02:58:54.490Z,10
2017-05-06T02:59:57.613Z,10
2017-05-06T03:00:59.972Z,10
2017-05-06T03:02:02.838Z,10
2017-05-06T03:03:05.208Z,10
2017-05-06T03:04:07.945Z,10
2017-05-06T03:05:10.935Z,10
2017-05-06T03:06:13.166Z,10
2017-05-06T03:07:16.029Z,10
2017-05-06T03:08:18.259Z,10
2017-05-06T03:09:21.124Z,10
2017-05-06T03:10:23.973Z,10
2017-05-06T03:11:26.342Z,10
2017-05-06T03:12:29.210Z,10
2017-05-06T03:13:32.082Z,10
2017-05-06T03:14:34.448Z,9.9
2017-05-06T03:15:37.569Z,9.9
2017-05-06T03:16:39.799Z,9.9
2017-05-06T03:17:42.671Z,9.9
2017-05-06T03:18:45.044Z,9.9
2017-05-06T03:19:47.912Z,9.9
2017-05-06T03:20:50.578Z,10
2017-05-06T03:21:52.673Z,9.9
2017-05-06T03:22:56.049Z,9.9
2017-05-06T03:23:58.418Z,10
2017-05-06T03:25:01.287Z,10
2017-05-06T03:26:03.953Z,10
2017-05-06T03:27:06.321Z,10
2017-05-06T03:28:09.053Z,10
2017-05-06T03:29:11.926Z,10
2017-05-06T03:30:14.291Z,10
2017-05-06T03:31:17.409Z,9.9
2017-05-06T03:32:19.773Z,9.9
2017-05-06T03:33:22.644Z,9.9
2017-05-06T03:34:25.014Z,9.9
2017-05-06T03:35:27.882Z,9.9
2017-05-06T03:36:30.925Z,9.9
2017-05-06T03:37:33.289Z,9.9
2017-05-06T03:38:35.657Z,9.9
2017-05-06T03:39:38.520Z,9.9
2017-05-06T03:40:40.891Z,10
2017-05-06T03:41:44.014Z,9.9
2017-05-06T03:42:46.382Z,9.9
2017-05-06T03:43:49.254Z,9.9
2017-05-06T03:44:51.622Z,9.9
2017-05-06T03:45:54.491Z,9.9
2017-05-06T03:46:57.108Z,9.9
2017-05-06T03:47:59.345Z,9.9
2017-05-06T03:49:02.221Z,9.9
2017-05-06T03:50:05.095Z,9.9
2017-05-06T03:51:07.327Z,9.9
2017-05-06T03:52:10.818Z,9.9
2017-05-06T03:53:13.052Z,9.9
2017-05-06T03:54:15.785Z,9.8
2017-05-06T03:55:18.150Z,9.9
2017-05-06T03:56:21.022Z,9.9
2017-05-06T03:57:24.143Z,9.9
2017-05-06T03:58:26.512Z,9.9
2017-05-06T03:59:28.877Z,9.9
2017-05-06T04:00:31.745Z,10
2017-05-06T04:01:34.109Z,10
2017-05-06T04:02:37.278Z,10
2017-05-06T04:03:39.649Z,10
2017-05-06T04:04:42.515Z,10
2017-05-06T04:05:44.879Z,9.9
2017-05-06T04:06:47.748Z,9.9
2017-05-06T04:07:50.148Z,9.8
2017-05-06T04:08:53.017Z,9.8
2017-05-06T04:09:55.938Z,9.8
2017-05-06T04:10:58.305Z,9.8
2017-05-06T04:12:00.665Z,9.8
2017-05-06T04:13:03.827Z,9.8
2017-05-06T04:14:06.174Z,9.8
2017-05-06T04:15:09.023Z,9.8
2017-05-06T04:17:14.132Z,9.9
2017-05-06T04:19:19.627Z,9.9
2017-05-06T04:21:24.882Z,10
2017-05-06T04:22:27.219Z,9.9
2017-05-06T04:23:30.060Z,9.9
2017-05-06T04:24:33.155Z,9.9
2017-05-06T04:25:35.495Z,9.9
2017-05-06T04:26:37.830Z,9.9
2017-05-06T04:27:40.675Z,9.9
2017-05-06T04:28:43.515Z,9.9
2017-05-06T04:29:46.159Z,9.9
2017-05-06T04:30:48.496Z,9.9
2017-05-06T04:31:51.334Z,9.9
2017-05-06T04:32:54.210Z,9.9
2017-05-06T04:33:56.414Z,9.9
2017-05-06T04:34:59.507Z,9.9
2017-05-06T04:37:04.631Z,9.9
2017-05-06T04:38:07.463Z,9.9
2017-05-06T04:39:09.664Z,9.9
2017-05-06T04:40:12.619Z,9.9
2017-05-06T04:42:17.594Z,9.8
2017-05-06T04:43:20.299Z,9.9
2017-05-06T04:44:23.148Z,9.9
2017-05-06T04:45:26.239Z,9.9
2017-05-06T04:46:28.578Z,9.9
2017-05-06T04:47:31.421Z,9.9
2017-05-06T04:48:33.757Z,9.9
2017-05-06T04:49:36.596Z,9.9
2017-05-06T04:50:39.736Z,9.9
2017-05-06T04:51:42.069Z,9.8
2017-05-06T04:52:44.400Z,9.8
2017-05-06T04:53:47.247Z,9.8
2017-05-06T04:54:50.087Z,9.8
2017-05-06T04:55:52.681Z,9.8
2017-05-06T04:56:55.016Z,9.8
2017-05-06T04:57:57.858Z,9.9
2017-05-06T04:59:00.695Z,9.9
2017-05-06T05:00:03.029Z,9.9
2017-05-06T05:01:05.980Z,9.9
2017-05-06T05:02:08.313Z,9.9
2017-05-06T05:03:11.153Z,9.9
2017-05-06T05:05:16.395Z,10
2017-05-06T05:06:19.498Z,10
2017-05-06T05:07:21.836Z,9.9
2017-05-06T05:08:24.036Z,9.9
2017-05-06T05:09:26.882Z,9.9
2017-05-06T05:10:29.585Z,9.9
2017-05-06T05:11:32.727Z,10
2017-05-06T05:12:35.060Z,10
2017-05-06T05:13:37.901Z,10
2017-05-06T05:14:40.233Z,10
2017-05-06T05:15:42.938Z,10
2017-05-06T05:16:46.028Z,10
2017-05-06T05:17:48.369Z,10
2017-05-06T05:18:50.745Z,10
2017-05-06T05:19:53.593Z,10
2017-05-06T05:20:56.432Z,10
2017-05-06T05:21:59.018Z,10
2017-05-06T05:23:01.371Z,10
2017-05-06T05:24:04.215Z,10
2017-05-06T05:25:07.053Z,10
2017-05-06T05:26:09.389Z,10
2017-05-06T05:27:12.478Z,10
2017-05-06T05:28:14.809Z,10
2017-05-06T05:29:17.664Z,10
2017-05-06T05:30:20.000Z,10
2017-05-06T05:31:22.706Z,10
2017-05-06T05:32:25.657Z,10
2017-05-06T05:33:27.993Z,10
2017-05-06T05:34:30.837Z,10
2017-05-06T05:35:33.681Z,10
2017-05-06T05:36:36.017Z,10
2017-05-06T05:37:39.104Z,9.9
2017-05-06T05:38:41.445Z,9.9
2017-05-06T05:39:44.283Z,9.9
2017-05-06T05:40:46.618Z,9.9
2017-05-06T05:41:49.462Z,10
2017-05-06T05:42:52.551Z,9.9
2017-05-06T05:43:54.887Z,10
2017-05-06T05:44:57.219Z,10
2017-05-06T05:46:00.058Z,10
2017-05-06T05:47:02.902Z,10
2017-05-06T05:48:05.404Z,9.9
2017-05-06T05:50:10.520Z,10
2017-05-06T05:51:13.357Z,10
2017-05-06T05:52:16.201Z,10
2017-05-06T05:53:18.787Z,10
2017-05-06T05:54:21.115Z,10
2017-05-06T05:55:23.844Z,10
2017-05-06T05:56:26.680Z,10
2017-05-06T05:57:29.525Z,10
2017-05-06T05:58:32.160Z,10
2017-05-06T05:59:34.369Z,10
2017-05-06T06:00:37.208Z,10
2017-05-06T06:01:40.046Z,10
2017-05-06T06:02:42.887Z,10
2017-05-06T06:03:45.476Z,10
2017-05-06T06:04:47.811Z,10.1
2017-05-06T06:05:50.516Z,10.1
2017-05-06T06:06:53.228Z,10.1
2017-05-06T06:07:56.071Z,10.1
2017-05-06T06:08:58.664Z,10.1
2017-05-06T06:10:01.500Z,10.1
2017-05-06T06:11:03.698Z,10.1
2017-05-06T06:12:06.544Z,10.1
2017-05-06T06:13:09.279Z,10
2017-05-06T06:14:12.421Z,10
2017-05-06T06:15:14.625Z,10
2017-05-06T06:16:16.972Z,10
2017-05-06T06:17:19.818Z,10
2017-05-06T06:18:22.658Z,10
2017-05-06T06:19:25.620Z,10
2017-05-06T06:20:27.960Z,10
2017-05-06T06:21:30.293Z,10
2017-05-06T06:22:33.131Z,10
2017-05-06T06:23:35.971Z,10
2017-05-06T06:24:38.567Z,10
2017-05-06T06:25:40.772Z,10
2017-05-06T06:26:43.983Z,10
2017-05-06T06:27:46.316Z,10
2017-05-06T06:28:49.151Z,10
2017-05-06T06:29:52.240Z,10.1
2017-05-06T06:30:54.575Z,10.1
2017-05-06T06:31:56.910Z,10
2017-05-06T06:32:59.748Z,10.1
2017-05-06T06:34:02.583Z,10.1
2017-05-06T06:35:05.225Z,10.1
2017-05-06T06:36:07.559Z,10.1
2017-05-06T06:37:10.396Z,10.1
2017-05-06T06:38:12.967Z,10.1
2017-05-06T06:39:15.808Z,10.1
2017-05-06T06:40:18.901Z,10.1
2017-05-06T06:41:21.234Z,10.1
2017-05-06T06:42:23.564Z,10.1
2017-05-06T06:43:26.400Z,10.1
2017-05-06T06:44:29.235Z,10.1
2017-05-06T06:45:32.243Z,10.1
2017-05-06T06:46:34.578Z,10.1
2017-05-06T06:47:36.913Z,10.1
2017-05-06T06:48:39.749Z,10.1
2017-05-06T06:49:42.590Z,10.1
2017-05-06T06:50:45.175Z,10.1
2017-05-06T06:51:47.514Z,10.1
2017-05-06T06:52:50.352Z,10.1
2017-05-06T06:53:53.193Z,10.1
2017-05-06T06:54:55.527Z,10.1
2017-05-06T06:55:58.617Z,10.1
2017-05-06T06:57:00.951Z,10.1
2017-05-06T06:58:03.785Z,10.1
2017-05-06T06:59:06.125Z,10.1
2017-05-06T07:01:11.997Z,10.1
2017-05-06T07:02:14.341Z,10.1
2017-05-06T07:03:17.049Z,10.1
2017-05-06T07:04:19.885Z,10.1
2017-05-06T07:05:22.224Z,10.1
2017-05-06T07:06:25.369Z,10.1
2017-05-06T07:07:27.706Z,10.1
2017-05-06T07:08:30.413Z,10.1
2017-05-06T07:09:33.118Z,10.1
2017-05-06T07:10:35.458Z,10.1
2017-05-06T07:11:38.565Z,10.1
2017-05-06T07:12:40.898Z,10.1
2017-05-06T07:13:43.747Z,10.1
2017-05-06T07:14:46.095Z,10.1
2017-05-06T07:15:48.936Z,10.1
2017-05-06T07:16:52.025Z,10.1
2017-05-06T07:17:54.366Z,10.1
2017-05-06T07:18:56.705Z,10.1
2017-05-06T07:19:59.559Z,10.1
2017-05-06T07:21:02.402Z,10.1
2017-05-06T07:22:04.995Z,10.1
2017-05-06T07:23:07.883Z,10.1
2017-05-06T07:24:10.224Z,10.1
2017-05-06T07:25:12.931Z,10.2
2017-05-06T07:26:15.638Z,10.2
2017-05-06T07:27:18.229Z,10.2
2017-05-06T07:28:21.068Z,10.2
2017-05-06T07:29:23.268Z,10.2
2017-05-06T07:30:25.976Z,10.2
2017-05-06T07:31:28.813Z,10.2
2017-05-06T07:32:31.902Z,10.2
2017-05-06T07:33:34.239Z,10.2
2017-05-06T07:34:37.076Z,10.2
2017-05-06T07:35:39.412Z,10.2
2017-05-06T07:36:42.252Z,10.3
2017-05-06T07:37:45.916Z,10.3
2017-05-06T07:38:47.750Z,10.3
2017-05-06T07:39:50.083Z,10.3
2017-05-06T07:40:53.468Z,10.3
2017-05-06T07:41:55.301Z,10.3
2017-05-06T07:42:58.949Z,10.3
2017-05-06T07:44:00.828Z,10.3
2017-05-06T07:45:03.529Z,10.3
2017-05-06T07:46:06.241Z,10.3
2017-05-06T07:47:09.079Z,10.3
2017-05-06T07:48:11.670Z,10.3
2017-05-06T07:49:14.004Z,10.3
2017-05-06T07:50:16.841Z,10.3
2017-05-06T07:51:19.678Z,10.3
2017-05-06T07:52:22.042Z,10.4
2017-05-06T07:53:25.190Z,10.4
2017-05-06T07:54:27.528Z,10.4
2017-05-06T07:55:30.401Z,10.4
2017-05-06T07:56:32.746Z,10.4
2017-05-06T07:57:35.586Z,10.4
2017-05-06T07:58:38.678Z,10.4
2017-05-06T07:59:41.572Z,10.5
2017-05-06T08:00:43.407Z,10.5
2017-05-06T08:01:46.244Z,10.5
2017-05-06T08:02:49.079Z,10.5
2017-05-06T08:03:51.905Z,10.5
2017-05-06T08:04:54.244Z,10.5
2017-05-06T08:05:57.086Z,10.5
2017-05-06T08:06:59.830Z,10.5
2017-05-06T08:08:02.189Z,10.5
2017-05-06T08:09:05.286Z,10.5
2017-05-06T08:10:07.626Z,10.5
2017-05-06T08:11:10.462Z,10.5
2017-05-06T08:12:12.658Z,10.5
2017-05-06T08:13:15.229Z,10.5
2017-05-06T08:14:18.385Z,10.5
2017-05-06T08:15:20.721Z,10.5
2017-05-06T08:16:23.426Z,10.5
2017-05-06T08:17:26.811Z,10.5
2017-05-06T08:18:29.011Z,10.5
2017-05-06T08:20:34.376Z,10.5
2017-05-06T08:21:36.946Z,10.5
2017-05-06T08:22:39.786Z,10.5
2017-05-06T08:23:42.134Z,10.5
2017-05-06T08:24:44.975Z,10.5
2017-05-06T08:25:48.083Z,10.5
2017-05-06T08:26:50.420Z,10.5
2017-05-06T08:27:53.130Z,10.5
2017-05-06T08:28:55.339Z,10.5
2017-05-06T08:29:58.175Z,10.5
2017-05-06T08:31:01.314Z,10.5
2017-05-06T08:32:03.649Z,10.5
2017-05-06T08:33:06.491Z,10.5
2017-05-06T08:34:08.694Z,10.5
2017-05-06T08:35:11.532Z,10.6
2017-05-06T08:36:14.621Z,10.6
2017-05-06T08:37:17.372Z,10.6
2017-05-06T08:39:22.615Z,10.6
2017-05-06T08:40:24.950Z,10.6
2017-05-06T08:41:28.045Z,10.5
2017-05-06T08:42:30.382Z,10.6
2017-05-06T08:43:33.221Z,10.6
2017-05-06T08:44:35.466Z,10.6
2017-05-06T08:45:38.672Z,10.6
2017-05-06T08:46:41.314Z,10.6
2017-05-06T08:47:43.652Z,10.6
2017-05-06T08:48:46.359Z,10.6
2017-05-06T08:49:49.195Z,10.6
2017-05-06T08:50:52.031Z,10.6
2017-05-06T08:51:54.621Z,10.6
2017-05-06T08:52:56.956Z,10.6
2017-05-06T08:53:59.795Z,10.6
2017-05-06T08:55:02.497Z,10.6
2017-05-06T08:56:05.140Z,10.6
2017-05-06T08:57:08.152Z,10.6
2017-05-06T08:58:10.350Z,10.6
2017-05-06T08:59:13.231Z,10.6
2017-05-06T09:01:18.482Z,10.7
2017-05-06T09:02:21.623Z,10.7
2017-05-06T09:03:24.375Z,10.7
2017-05-06T09:04:26.707Z,10.7
2017-05-06T09:05:29.045Z,10.7
2017-05-06T09:06:31.757Z,10.7
2017-05-06T09:07:34.852Z,10.7
2017-05-06T09:08:37.056Z,10.7
2017-05-06T09:09:39.893Z,10.7
2017-05-06T09:10:42.607Z,10.7
2017-05-06T09:11:45.316Z,10.7
2017-05-06T09:12:48.463Z,10.7
2017-05-06T09:13:50.804Z,10.6
2017-05-06T09:14:53.139Z,10.7
2017-05-06T09:15:55.983Z,10.7
2017-05-06T09:18:01.479Z,10.8
2017-05-06T09:19:03.812Z,10.8
2017-05-06T09:20:06.649Z,10.8
2017-05-06T09:21:09.495Z,10.8
2017-05-06T09:22:11.839Z,10.8
2017-05-06T09:23:14.980Z,10.8
2017-05-06T09:24:17.197Z,10.8
2017-05-06T09:25:19.927Z,10.8
2017-05-06T09:26:22.770Z,10.8
2017-05-06T09:27:25.613Z,10.9
2017-05-06T09:28:28.254Z,10.8
2017-05-06T09:29:30.600Z,10.8
2017-05-06T09:30:33.174Z,10.8
2017-05-06T09:31:36.025Z,10.8
2017-05-06T09:32:38.733Z,10.8
2017-05-06T09:33:41.690Z,10.8
2017-05-06T09:34:44.027Z,10.9
2017-05-06T09:35:46.870Z,11
2017-05-06T09:36:49.712Z,10.9
2017-05-06T09:37:52.046Z,11
2017-05-06T09:38:55.137Z,11
2017-05-06T09:39:57.400Z,11
2017-05-06T09:41:00.238Z,11
2017-05-06T09:42:03.076Z,11
2017-05-06T09:43:05.410Z,11
2017-05-06T09:44:08.501Z,11
2017-05-06T09:45:10.566Z,11
2017-05-06T09:46:13.752Z,11
2017-05-06T09:47:16.594Z,11
2017-05-06T09:48:18.793Z,11
2017-05-06T09:49:21.884Z,11
2017-05-06T09:50:23.945Z,11
2017-05-06T09:51:27.148Z,11
2017-05-06T09:52:29.987Z,11
2017-05-06T09:53:32.184Z,11
2017-05-06T09:54:35.140Z,11
2017-05-06T09:55:37.973Z,11
2017-05-06T09:56:40.305Z,11
2017-05-06T09:57:43.146Z,11
2017-05-06T09:58:45.850Z,11.1
2017-05-06T09:59:48.991Z,11
2017-05-06T10:00:51.197Z,11
2017-05-06T10:01:54.043Z,11
2017-05-06T10:02:56.381Z,11
2017-05-06T10:03:59.221Z,11
2017-05-06T10:05:02.363Z,11.1
2017-05-06T10:06:04.702Z,11.1
2017-05-06T10:07:07.546Z,11.1
2017-05-06T10:08:09.744Z,11.1
2017-05-06T10:09:12.580Z,11.1
2017-05-06T10:10:15.725Z,11.1
2017-05-06T10:11:18.065Z,11.1
2017-05-06T10:12:20.906Z,11.1
2017-05-06T10:13:23.802Z,11.1
2017-05-06T10:14:26.003Z,11.1
2017-05-06T10:15:29.638Z,11.1
2017-05-06T10:16:31.469Z,11.1
2017-05-06T10:18:36.581Z,11.1
2017-05-06T10:19:39.423Z,11.1
2017-05-06T10:20:42.513Z,11.1
2017-05-06T10:21:44.856Z,11.1
2017-05-06T10:22:47.696Z,11.1
2017-05-06T10:23:50.032Z,11.2
2017-05-06T10:24:52.869Z,11.3
2017-05-06T10:25:55.973Z,11.3
2017-05-06T10:26:58.317Z,11.3
2017-05-06T10:28:01.159Z,11.3
2017-05-06T10:29:03.495Z,11.3
2017-05-06T10:30:06.333Z,11.4
2017-05-06T10:31:09.425Z,11.5
2017-05-06T10:32:11.628Z,11.6
2017-05-06T10:33:14.466Z,11.6
2017-05-06T10:34:17.301Z,11.6
2017-05-06T10:35:19.639Z,11.7
2017-05-06T10:36:22.728Z,11.7
2017-05-06T10:37:25.066Z,11.7
2017-05-06T10:38:27.906Z,11.7
2017-05-06T10:39:30.746Z,11.8
2017-05-06T10:40:33.083Z,11.7
2017-05-06T10:41:36.229Z,11.8
2017-05-06T10:43:41.341Z,11.7
2017-05-06T10:44:44.181Z,11.7
2017-05-06T10:45:46.382Z,11.7
2017-05-06T10:46:49.842Z,11.7
2017-05-06T10:48:54.582Z,11.7
2017-05-06T10:49:57.466Z,11.7
2017-05-06T10:51:00.171Z,11.8
2017-05-06T10:52:03.264Z,11.8
2017-05-06T10:53:05.599Z,11.8
2017-05-06T10:54:08.444Z,11.8
2017-05-06T10:55:10.784Z,11.8
2017-05-06T10:56:13.486Z,11.8
2017-05-06T10:57:16.178Z,12
2017-05-06T10:58:19.030Z,12
2017-05-06T10:59:21.867Z,12
2017-05-06T11:00:24.570Z,12
2017-05-06T11:01:27.410Z,11.9
2017-05-06T11:02:30.236Z,11.9
2017-05-06T11:03:32.572Z,11.8
2017-05-06T11:04:35.409Z,11.8
2017-05-06T11:05:37.614Z,11.8
2017-05-06T11:06:40.451Z,11.8
2017-05-06T11:07:43.589Z,11.9
2017-05-06T11:08:45.923Z,11.8
2017-05-06T11:09:49.324Z,12
2017-05-06T11:10:51.658Z,12
2017-05-06T11:11:53.994Z,12.1
2017-05-06T11:12:57.135Z,12.1
2017-05-06T11:13:59.471Z,12.1
2017-05-06T11:15:02.178Z,12.1
2017-05-06T11:16:04.883Z,12.1
2017-05-06T11:17:07.587Z,12.1
2017-05-06T11:18:10.547Z,12.1
2017-05-06T11:19:12.747Z,12.1
2017-05-06T11:20:15.579Z,12.1
2017-05-06T11:21:18.420Z,12.2
2017-05-06T11:22:21.259Z,12.2
2017-05-06T11:23:24.398Z,12.2
2017-05-06T11:24:26.596Z,12.3
2017-05-06T11:25:29.432Z,12.3
2017-05-06T11:26:32.139Z,12.5
2017-05-06T11:27:35.409Z,12.5
2017-05-06T11:28:37.491Z,12.5
2017-05-06T11:29:40.876Z,12.5
2017-05-06T11:30:42.706Z,12.5
2017-05-06T11:31:45.547Z,12.6
2017-05-06T11:32:48.956Z,12.6
2017-05-06T11:33:51.043Z,12.7
2017-05-06T11:34:53.744Z,12.6
2017-05-06T11:36:58.981Z,12.6
2017-05-06T11:38:01.681Z,12.7
2017-05-06T11:39:04.774Z,12.7
2017-05-06T11:40:06.971Z,12.7
2017-05-06T11:41:09.809Z,12.7
2017-05-06T11:42:12.517Z,12.7
2017-05-06T11:43:15.353Z,12.8
2017-05-06T11:44:18.307Z,12.9
2017-05-06T11:45:20.644Z,12.8
2017-05-06T11:46:23.486Z,12.8
2017-05-06T11:47:26.193Z,12.8
2017-05-06T11:48:28.897Z,12.8
2017-05-06T11:49:32.041Z,12.8
2017-05-06T11:50:34.376Z,12.8
2017-05-06T11:51:37.221Z,12.7
2017-05-06T11:52:39.553Z,12.7
2017-05-06T11:53:42.390Z,12.7
2017-05-06T11:54:45.536Z,12.8
2017-05-06T11:55:47.869Z,12.7
2017-05-06T11:56:50.737Z,12.7
2017-05-06T11:57:53.574Z,12.8
2017-05-06T11:58:55.912Z,12.8
2017-05-06T11:59:59.055Z,12.8
2017-05-06T12:01:01.764Z,12.8
2017-05-06T12:02:04.139Z,12.8
2017-05-06T12:03:06.847Z,12.8
2017-05-06T12:04:09.685Z,12.8
2017-05-06T12:05:12.692Z,12.8
2017-05-06T12:06:15.027Z,13
2017-05-06T12:07:17.868Z,13
2017-05-06T12:08:20.569Z,13
2017-05-06T12:10:26.064Z,12.9
2017-05-06T12:11:28.771Z,13
2017-05-06T12:13:34.251Z,13
2017-05-06T12:14:37.092Z,13
2017-05-06T12:15:39.678Z,13
2017-05-06T12:16:42.515Z,13.1
2017-05-06T12:17:44.718Z,13.1
2017-05-06T12:18:47.561Z,13.1
2017-05-06T12:19:50.266Z,13.1
2017-05-06T12:20:53.358Z,13.1
2017-05-06T12:21:55.693Z,13.1
2017-05-06T12:22:58.532Z,13.2
2017-05-06T12:24:01.371Z,13.3
2017-05-06T12:25:04.210Z,13.2
2017-05-06T12:26:07.163Z,13.2
2017-05-06T12:27:09.497Z,13.2
2017-05-06T12:28:12.337Z,13.1
2017-05-06T12:29:15.042Z,13.1
2017-05-06T12:30:17.883Z,13.1
2017-05-06T12:31:20.974Z,13.1
2017-05-06T12:32:23.307Z,13
2017-05-06T12:33:26.151Z,13
2017-05-06T12:34:28.488Z,13.1
2017-05-06T12:35:31.327Z,13.2
2017-05-06T12:36:34.467Z,13.2
2017-05-06T12:38:39.713Z,13.4
2017-05-06T12:40:44.961Z,13.4
2017-05-06T12:41:47.913Z,13.3
2017-05-06T12:42:50.749Z,13.3
2017-05-06T12:43:53.086Z,13.4
2017-05-06T12:44:55.950Z,13.6
2017-05-06T12:45:58.654Z,13.5
2017-05-06T12:47:01.795Z,13.5
2017-05-06T12:48:04.001Z,13.5
2017-05-06T12:49:06.705Z,13.4
2017-05-06T12:50:09.546Z,13.3
2017-05-06T12:51:12.384Z,13.3
2017-05-06T12:53:17.754Z,13.2
2017-05-06T12:54:20.598Z,13.3
2017-05-06T12:55:24.013Z,13.5
2017-05-06T12:56:25.842Z,13.5
2017-05-06T12:57:28.687Z,13.6
2017-05-06T12:58:31.780Z,13.6
2017-05-06T12:59:34.111Z,13.6
2017-05-06T13:00:36.945Z,13.6
2017-05-06T13:01:39.787Z,13.6
2017-05-06T13:02:42.625Z,13.6
2017-05-06T13:03:45.220Z,13.5
2017-05-06T13:04:47.932Z,13.5
2017-05-06T13:05:50.774Z,13.5
2017-05-06T13:06:53.613Z,13.5
2017-05-06T13:07:56.318Z,13.5
2017-05-06T13:08:58.904Z,13.5
2017-05-06T13:10:01.742Z,13.6
2017-05-06T13:11:04.445Z,13.5
2017-05-06T13:12:07.150Z,13.6
2017-05-06T13:13:09.854Z,13.7
2017-05-06T13:14:13.543Z,13.6
2017-05-06T13:16:18.279Z,13.6
2017-05-06T13:17:20.615Z,13.6
2017-05-06T13:18:23.454Z,13.6
2017-05-06T13:19:26.545Z,13.7
2017-05-06T13:20:28.880Z,13.7
2017-05-06T13:21:31.739Z,13.8
2017-05-06T13:22:34.584Z,13.8
2017-05-06T13:23:37.425Z,13.8
2017-05-06T13:24:40.070Z,13.8
2017-05-06T13:25:42.779Z,13.8
2017-05-06T13:26:45.487Z,13.9
2017-05-06T13:27:48.326Z,13.8
2017-05-06T13:28:51.174Z,13.9
2017-05-06T13:29:53.766Z,13.8
2017-05-06T13:30:56.603Z,14
2017-05-06T13:31:58.939Z,13.9
2017-05-06T13:33:02.008Z,13.8
2017-05-06T13:34:04.853Z,13.8
2017-05-06T13:35:07.490Z,13.7
2017-05-06T13:36:10.199Z,13.7
2017-05-06T13:37:12.769Z,13.8
2017-05-06T13:38:15.473Z,13.8
2017-05-06T13:39:18.307Z,13.8
2017-05-06T13:40:21.448Z,13.8
2017-05-06T13:41:23.787Z,13.8
2017-05-06T13:42:26.485Z,13.8
2017-05-06T13:43:29.331Z,13.9
2017-05-06T13:44:32.176Z,14
2017-05-06T13:45:35.315Z,14.1
2017-05-06T13:46:37.652Z,14.1
2017-05-06T13:47:40.497Z,14.1
2017-05-06T13:48:43.342Z,14.2
2017-05-06T13:49:45.682Z,14.3
2017-05-06T13:50:48.776Z,14.3
2017-05-06T13:51:51.110Z,14.3
2017-05-06T13:52:53.959Z,14.2
2017-05-06T13:53:56.796Z,14.1
2017-05-06T13:54:59.637Z,14.1
2017-05-06T13:56:02.788Z,14.3
2017-05-06T13:57:05.121Z,14.3
2017-05-06T13:58:07.695Z,14.3
2017-05-06T13:59:10.396Z,14.3
2017-05-06T14:00:13.604Z,14.3
2017-05-06T14:01:16.245Z,14.4
2017-05-06T14:02:19.090Z,14.3
2017-05-06T14:03:21.427Z,14.3
2017-05-06T14:04:24.268Z,14.3
2017-05-06T14:05:27.110Z,14.3
2017-05-06T14:06:30.243Z,14.3
2017-05-06T14:07:32.581Z,14.2
2017-05-06T14:08:35.421Z,14.3
2017-05-06T14:09:38.257Z,14.3
2017-05-06T14:10:40.828Z,14.3
2017-05-06T14:11:43.699Z,14.3
2017-05-06T14:12:46.403Z,14.2
2017-05-06T14:13:48.972Z,14.3
2017-05-06T14:14:51.813Z,14.3
2017-05-06T14:15:54.846Z,14.3
2017-05-06T14:16:57.303Z,14.4
2017-05-06T14:18:00.145Z,14.4
2017-05-06T14:19:02.854Z,14.4
2017-05-06T14:20:05.691Z,14.4
2017-05-06T14:22:11.691Z,14.2
2017-05-06T14:23:13.895Z,14.4
2017-05-06T14:24:16.601Z,14.5
2017-05-06T14:25:19.438Z,14.6
2017-05-06T14:26:22.276Z,14.5
2017-05-06T14:27:25.400Z,14.4
2017-05-06T14:28:27.732Z,14.5
2017-05-06T14:29:30.571Z,14.5
2017-05-06T14:30:33.410Z,14.6
2017-05-06T14:31:36.251Z,14.5
2017-05-06T14:32:38.757Z,14.5
2017-05-06T14:33:41.595Z,14.3
2017-05-06T14:34:44.433Z,14.4
2017-05-06T14:35:47.279Z,14.3
2017-05-06T14:36:49.620Z,14.5
2017-05-06T14:37:52.709Z,14.5
2017-05-06T14:38:55.551Z,14.5
2017-05-06T14:39:57.889Z,14.4
2017-05-06T14:41:00.597Z,14.4
2017-05-06T14:42:03.300Z,14.4
2017-05-06T14:43:06.759Z,14.5